sensor_id;sensor_type;location;lat;lon;timestamp;pressure;altitude;pressure_sealevel;temperature;humidity
50790;BME280;37287;47.554;7.844;2023-04-01T00:00:23;96913.38;;;6.43;100.00
50790;BME280;37287;47.554;7.844;2023-04-01T00:02:53;96913.38;;;6.43;100.00
50790;BME280;37287;47.554;7.844;2023-04-01T00:05:20;96913.75;;;6.41;100.00
50790;BME280;37287;47.554;7.844;2023-04-01T00:07:47;96902.56;;;6.35;100.00
50790;BME280;37287;47.554;7.844;2023-04-01T00:10:15;96903.31;;;6.36;100.00
50790;BME280;37287;47.554;7.844;2023-04-01T00:12:43;96906.81;;;6.36;100.00
50790;BME280;37287;47.554;7.844;2023-04-01T00:15:12;96901.44;;;6.36;100.00
50790;BME280;37287;47.554;7.844;2023-04-01T00:17:38;96904.50;;;6.35;100.00
50790;BME280;37287;47.554;7.844;2023-04-01T00:20:06;96912.94;;;6.37;100.00
50790;BME280;37287;47.554;7.844;2023-04-01T00:22:36;96912.19;;;6.40;100.00
50790;BME280;37287;47.554;7.844;2023-04-01T00:25:07;96908.31;;;6.37;100.00
50790;BME280;37287;47.554;7.844;2023-04-01T00:27:34;96909.13;;;6.38;100.00
50790;BME280;37287;47.554;7.844;2023-04-01T00:30:00;96908.38;;;6.41;100.00
50790;BME280;37287;47.554;7.844;2023-04-01T00:32:27;96902.63;;;6.43;100.00
50790;BME280;37287;47.554;7.844;2023-04-01T00:34:54;96901.06;;;6.42;100.00
50790;BME280;37287;47.554;7.844;2023-04-01T00:37:20;96905.31;;;6.43;100.00
50790;BME280;37287;47.554;7.844;2023-04-01T00:39:49;96903.41;;;6.47;100.00
50790;BME280;37287;47.554;7.844;2023-04-01T00:42:16;96896.91;;;6.48;100.00
50790;BME280;37287;47.554;7.844;2023-04-01T00:44:47;96905.34;;;6.46;100.00
50790;BME280;37287;47.554;7.844;2023-04-01T00:47:16;96900.72;;;6.47;100.00
50790;BME280;37287;47.554;7.844;2023-04-01T00:49:50;96906.16;;;6.50;100.00
50790;BME280;37287;47.554;7.844;2023-04-01T00:52:19;96887.72;;;6.52;100.00
50790;BME280;37287;47.554;7.844;2023-04-01T00:54:53;96889.66;;;6.52;100.00
50790;BME280;37287;47.554;7.844;2023-04-01T00:57:28;96896.97;;;6.55;100.00
50790;BME280;37287;47.554;7.844;2023-04-01T00:59:59;96896.22;;;6.58;100.00
50790;BME280;37287;47.554;7.844;2023-04-01T01:10:34;96882.69;;;6.47;100.00
50790;BME280;37287;47.554;7.844;2023-04-01T01:16:06;96890.34;;;6.45;100.00
50790;BME280;37287;47.554;7.844;2023-04-01T01:21:32;96883.75;;;6.35;100.00
50790;BME280;37287;47.554;7.844;2023-04-01T01:24:51;96878.31;;;6.28;100.00
50790;BME280;37287;47.554;7.844;2023-04-01T01:27:22;96876.38;;;6.25;100.00
50790;BME280;37287;47.554;7.844;2023-04-01T01:30:12;96877.13;;;6.22;100.00
50790;BME280;37287;47.554;7.844;2023-04-01T01:32:59;96869.44;;;6.24;100.00
50790;BME280;37287;47.554;7.844;2023-04-01T01:35:34;96872.88;;;6.21;100.00
50790;BME280;37287;47.554;7.844;2023-04-01T01:38:06;96867.50;;;6.25;100.00
50790;BME280;37287;47.554;7.844;2023-04-01T01:40:37;96863.38;;;6.34;100.00
50790;BME280;37287;47.554;7.844;2023-04-01T01:43:10;96856.56;;;6.48;100.00
50790;BME280;37287;47.554;7.844;2023-04-01T01:45:41;96865.16;;;6.68;100.00
50790;BME280;37287;47.554;7.844;2023-04-01T01:48:12;96871.41;;;6.83;100.00
50790;BME280;37287;47.554;7.844;2023-04-01T01:50:41;96875.72;;;6.98;100.00
50790;BME280;37287;47.554;7.844;2023-04-01T01:53:11;96866.94;;;7.09;100.00
50790;BME280;37287;47.554;7.844;2023-04-01T01:55:44;96863.91;;;7.21;100.00
50790;BME280;37287;47.554;7.844;2023-04-01T01:58:28;96863.19;;;7.28;100.00
50790;BME280;37287;47.554;7.844;2023-04-01T02:01:00;96870.16;;;7.39;100.00
50790;BME280;37287;47.554;7.844;2023-04-01T02:03:30;96874.03;;;7.46;100.00
50790;BME280;37287;47.554;7.844;2023-04-01T02:05:59;96875.56;;;7.47;100.00
50790;BME280;37287;47.554;7.844;2023-04-01T02:08:35;96864.81;;;7.50;100.00
50790;BME280;37287;47.554;7.844;2023-04-01T02:11:06;96865.59;;;7.51;100.00
50790;BME280;37287;47.554;7.844;2023-04-01T02:16:22;96863.28;;;7.53;100.00
50790;BME280;37287;47.554;7.844;2023-04-01T02:18:55;96856.34;;;7.55;100.00
50790;BME280;37287;47.554;7.844;2023-04-01T02:21:26;96865.22;;;7.52;100.00
50790;BME280;37287;47.554;7.844;2023-04-01T02:23:56;96862.50;;;7.56;100.00
50790;BME280;37287;47.554;7.844;2023-04-01T02:26:24;96864.06;;;7.57;100.00
50790;BME280;37287;47.554;7.844;2023-04-01T02:28:54;96868.66;;;7.53;100.00
50790;BME280;37287;47.554;7.844;2023-04-01T02:31:22;96871.34;;;7.53;100.00
50790;BME280;37287;47.554;7.844;2023-04-01T02:33:52;96870.59;;;7.56;99.48
50790;BME280;37287;47.554;7.844;2023-04-01T02:36:19;96870.22;;;7.57;99.20
50790;BME280;37287;47.554;7.844;2023-04-01T02:38:49;96874.06;;;7.60;98.38
50790;BME280;37287;47.554;7.844;2023-04-01T02:41:25;96873.72;;;7.65;97.55
50790;BME280;37287;47.554;7.844;2023-04-01T02:43:52;96877.56;;;7.68;96.56
50790;BME280;37287;47.554;7.844;2023-04-01T02:46:18;96877.16;;;7.66;96.84
50790;BME280;37287;47.554;7.844;2023-04-01T02:48:45;96872.94;;;7.68;95.89
50790;BME280;37287;47.554;7.844;2023-04-01T02:51:12;96870.63;;;7.70;95.75
50790;BME280;37287;47.554;7.844;2023-04-01T02:53:39;96873.72;;;7.69;96.37
50790;BME280;37287;47.554;7.844;2023-04-01T02:56:05;96861.81;;;7.73;94.76
50790;BME280;37287;47.554;7.844;2023-04-01T02:58:32;96854.09;;;7.75;95.20
50790;BME280;37287;47.554;7.844;2023-04-01T03:00:58;96853.72;;;7.77;94.51
50790;BME280;37287;47.554;7.844;2023-04-01T03:03:29;96850.25;;;7.77;94.12
50790;BME280;37287;47.554;7.844;2023-04-01T03:05:57;96846.41;;;7.78;94.59
50790;BME280;37287;47.554;7.844;2023-04-01T03:08:26;96854.50;;;7.78;93.91
50790;BME280;37287;47.554;7.844;2023-04-01T03:10:53;96861.03;;;7.77;95.36
50790;BME280;37287;47.554;7.844;2023-04-01T03:13:19;96860.63;;;7.74;96.65
50790;BME280;37287;47.554;7.844;2023-04-01T03:15:48;96876.81;;;7.71;98.06
50790;BME280;37287;47.554;7.844;2023-04-01T03:18:21;96877.16;;;7.62;100.00
50790;BME280;37287;47.554;7.844;2023-04-01T03:20:48;96882.47;;;7.48;100.00
50790;BME280;37287;47.554;7.844;2023-04-01T03:23:14;96889.75;;;7.33;100.00
50790;BME280;37287;47.554;7.844;2023-04-01T03:25:45;96916.19;;;7.13;100.00
50790;BME280;37287;47.554;7.844;2023-04-01T03:28:11;96902.63;;;6.95;100.00
50790;BME280;37287;47.554;7.844;2023-04-01T03:30:39;96891.75;;;6.80;100.00
50790;BME280;37287;47.554;7.844;2023-04-01T03:33:06;96871.72;;;6.70;100.00
50790;BME280;37287;47.554;7.844;2023-04-01T03:35:33;96867.00;;;6.60;100.00
50790;BME280;37287;47.554;7.844;2023-04-01T03:38:02;96860.81;;;6.52;100.00
50790;BME280;37287;47.554;7.844;2023-04-01T03:40:33;96860.03;;;6.45;100.00
50790;BME280;37287;47.554;7.844;2023-04-01T03:43:03;96868.03;;;6.41;100.00
50790;BME280;37287;47.554;7.844;2023-04-01T03:45:47;96864.94;;;6.35;100.00
50790;BME280;37287;47.554;7.844;2023-04-01T03:48:14;96870.25;;;6.32;100.00
50790;BME280;37287;47.554;7.844;2023-04-01T03:50:45;96868.31;;;6.29;100.00
50790;BME280;37287;47.554;7.844;2023-04-01T03:53:11;96866.78;;;6.28;100.00
50790;BME280;37287;47.554;7.844;2023-04-01T03:55:39;96869.84;;;6.26;100.00
50790;BME280;37287;47.554;7.844;2023-04-01T03:58:08;96872.88;;;6.25;100.00
50790;BME280;37287;47.554;7.844;2023-04-01T04:00:35;96871.00;;;6.25;100.00
50790;BME280;37287;47.554;7.844;2023-04-01T04:03:02;96861.75;;;6.23;100.00
50790;BME280;37287;47.554;7.844;2023-04-01T04:05:30;96857.13;;;6.23;100.00
50790;BME280;37287;47.554;7.844;2023-04-01T04:07:58;96867.50;;;6.21;100.00
50790;BME280;37287;47.554;7.844;2023-04-01T04:10:26;96867.13;;;6.23;100.00
50790;BME280;37287;47.554;7.844;2023-04-01T04:12:57;96862.50;;;6.23;100.00
50790;BME280;37287;47.554;7.844;2023-04-01T04:15:24;96861.75;;;6.26;100.00
50790;BME280;37287;47.554;7.844;2023-04-01T04:17:50;96876.44;;;6.36;100.00
50790;BME280;37287;47.554;7.844;2023-04-01T04:20:17;96874.97;;;6.42;100.00
50790;BME280;37287;47.554;7.844;2023-04-01T04:22:45;96865.41;;;6.45;100.00
50790;BME280;37287;47.554;7.844;2023-04-01T04:25:12;96870.88;;;6.59;100.00
50790;BME280;37287;47.554;7.844;2023-04-01T04:27:54;96868.19;;;6.63;100.00
50790;BME280;37287;47.554;7.844;2023-04-01T04:30:23;96869.31;;;6.58;100.00
50790;BME280;37287;47.554;7.844;2023-04-01T04:32:56;96862.81;;;6.59;100.00
50790;BME280;37287;47.554;7.844;2023-04-01T04:35:23;96865.53;;;6.70;100.00
50790;BME280;37287;47.554;7.844;2023-04-01T04:37:49;96872.84;;;6.69;100.00
50790;BME280;37287;47.554;7.844;2023-04-01T04:40:16;96874.00;;;6.68;100.00
50790;BME280;37287;47.554;7.844;2023-04-01T04:42:43;96875.16;;;6.67;100.00
50790;BME280;37287;47.554;7.844;2023-04-01T04:45:10;96878.19;;;6.66;100.00
50790;BME280;37287;47.554;7.844;2023-04-01T04:47:37;96874.38;;;6.67;100.00
50790;BME280;37287;47.554;7.844;2023-04-01T04:50:04;96867.47;;;6.69;100.00
50790;BME280;37287;47.554;7.844;2023-04-01T04:52:30;96871.31;;;6.68;100.00
50790;BME280;37287;47.554;7.844;2023-04-01T04:55:00;96872.09;;;6.69;100.00
50790;BME280;37287;47.554;7.844;2023-04-01T04:57:27;96866.72;;;6.69;100.00
50790;BME280;37287;47.554;7.844;2023-04-01T04:59:53;96863.66;;;6.70;100.00
50790;BME280;37287;47.554;7.844;2023-04-01T05:02:22;96863.22;;;6.68;100.00
50790;BME280;37287;47.554;7.844;2023-04-01T05:04:49;96873.25;;;6.71;100.00
50790;BME280;37287;47.554;7.844;2023-04-01T05:07:15;96872.13;;;6.76;100.00
50790;BME280;37287;47.554;7.844;2023-04-01T05:09:44;96872.56;;;6.82;100.00
50790;BME280;37287;47.554;7.844;2023-04-01T05:12:12;96882.19;;;6.83;100.00
50790;BME280;37287;47.554;7.844;2023-04-01T05:14:39;96880.63;;;6.82;100.00
50790;BME280;37287;47.554;7.844;2023-04-01T05:17:09;96869.88;;;6.82;100.00
50790;BME280;37287;47.554;7.844;2023-04-01T05:19:37;96862.22;;;6.87;100.00
50790;BME280;37287;47.554;7.844;2023-04-01T05:22:05;96868.34;;;6.88;100.00
50790;BME280;37287;47.554;7.844;2023-04-01T05:24:32;96874.53;;;6.88;100.00
50790;BME280;37287;47.554;7.844;2023-04-01T05:26:59;96872.59;;;6.89;100.00
50790;BME280;37287;47.554;7.844;2023-04-01T05:29:26;96869.50;;;6.87;100.00
50790;BME280;37287;47.554;7.844;2023-04-01T05:31:54;96871.41;;;6.86;100.00
50790;BME280;37287;47.554;7.844;2023-04-01T05:34:21;96869.91;;;6.89;100.00
50790;BME280;37287;47.554;7.844;2023-04-01T05:36:47;96862.97;;;6.88;100.00
50790;BME280;37287;47.554;7.844;2023-04-01T05:39:14;96878.38;;;6.91;100.00
50790;BME280;37287;47.554;7.844;2023-04-01T05:41:40;96866.88;;;6.94;100.00
50790;BME280;37287;47.554;7.844;2023-04-01T05:44:07;96865.69;;;6.95;100.00
50790;BME280;37287;47.554;7.844;2023-04-01T05:46:33;96864.94;;;6.98;100.00
50790;BME280;37287;47.554;7.844;2023-04-01T05:49:00;96868.44;;;7.02;100.00
50790;BME280;37287;47.554;7.844;2023-04-01T05:51:26;96880.75;;;7.00;100.00
50790;BME280;37287;47.554;7.844;2023-04-01T05:53:55;96879.19;;;6.99;100.00
50790;BME280;37287;47.554;7.844;2023-04-01T05:56:21;96873.81;;;6.99;100.00
50790;BME280;37287;47.554;7.844;2023-04-01T05:58:51;96866.91;;;7.01;100.00
50790;BME280;37287;47.554;7.844;2023-04-01T06:01:20;96866.91;;;7.01;100.00
50790;BME280;37287;47.554;7.844;2023-04-01T06:03:47;96863.06;;;7.02;100.00
50790;BME280;37287;47.554;7.844;2023-04-01T06:06:20;96863.09;;;7.06;100.00
50790;BME280;37287;47.554;7.844;2023-04-01T06:08:52;96855.00;;;7.10;100.00
50790;BME280;37287;47.554;7.844;2023-04-01T06:11:51;96863.13;;;7.13;100.00
50790;BME280;37287;47.554;7.844;2023-04-01T06:14:44;96863.16;;;7.17;100.00
50790;BME280;37287;47.554;7.844;2023-04-01T06:17:30;96866.97;;;7.16;100.00
50790;BME280;37287;47.554;7.844;2023-04-01T06:20:16;96880.03;;;7.14;100.00
50790;BME280;37287;47.554;7.844;2023-04-01T06:29:07;96867.00;;;7.23;100.00
50790;BME280;37287;47.554;7.844;2023-04-01T06:40:41;96856.63;;;7.21;100.00
50790;BME280;37287;47.554;7.844;2023-04-01T06:46:45;96853.13;;;7.17;100.00
50790;BME280;37287;47.554;7.844;2023-04-01T06:49:34;96854.66;;;7.15;100.00
50790;BME280;37287;47.554;7.844;2023-04-01T06:52:26;96864.28;;;7.16;100.00
50790;BME280;37287;47.554;7.844;2023-04-01T06:55:02;96856.22;;;7.16;100.00
50790;BME280;37287;47.554;7.844;2023-04-01T06:57:35;96873.91;;;7.17;100.00
50790;BME280;37287;47.554;7.844;2023-04-01T07:00:38;96869.28;;;7.17;100.00
50790;BME280;37287;47.554;7.844;2023-04-01T07:03:30;96878.50;;;7.16;100.00
50790;BME280;37287;47.554;7.844;2023-04-01T07:06:06;96868.53;;;7.20;100.00
50790;BME280;37287;47.554;7.844;2023-04-01T07:08:38;96873.53;;;7.18;100.00
50790;BME280;37287;47.554;7.844;2023-04-01T07:11:10;96869.28;;;7.21;100.00
50790;BME280;37287;47.554;7.844;2023-04-01T07:14:01;96878.53;;;7.23;100.00
50790;BME280;37287;47.554;7.844;2023-04-01T07:16:53;96868.56;;;7.24;100.00
50790;BME280;37287;47.554;7.844;2023-04-01T07:19:32;96868.56;;;7.24;100.00
50790;BME280;37287;47.554;7.844;2023-04-01T07:22:12;96865.47;;;7.29;100.00
50790;BME280;37287;47.554;7.844;2023-04-01T07:24:41;96870.91;;;7.33;100.00
50790;BME280;37287;47.554;7.844;2023-04-01T07:27:11;96877.84;;;7.34;100.00
50790;BME280;37287;47.554;7.844;2023-04-01T07:29:38;96877.84;;;7.37;100.00
50790;BME280;37287;47.554;7.844;2023-04-01T07:32:32;96877.06;;;7.40;100.00
50790;BME280;37287;47.554;7.844;2023-04-01T07:40:39;96878.66;;;7.52;100.00
50790;BME280;37287;47.554;7.844;2023-04-01T07:52:25;96901.81;;;7.68;100.00
50790;BME280;37287;47.554;7.844;2023-04-01T07:55:07;96904.91;;;7.73;100.00
50790;BME280;37287;47.554;7.844;2023-04-01T07:57:49;96902.59;;;7.75;100.00
50790;BME280;37287;47.554;7.844;2023-04-01T08:00:33;96902.25;;;7.81;100.00
50790;BME280;37287;47.554;7.844;2023-04-01T08:03:21;96913.03;;;7.81;100.00
50790;BME280;37287;47.554;7.844;2023-04-01T08:06:00;96908.00;;;7.83;100.00
50790;BME280;37287;47.554;7.844;2023-04-01T08:14:15;96918.03;;;7.82;100.00
50790;BME280;37287;47.554;7.844;2023-04-01T08:16:57;96923.78;;;7.77;100.00
50790;BME280;37287;47.554;7.844;2023-04-01T08:22:27;96921.47;;;7.79;100.00
50790;BME280;37287;47.554;7.844;2023-04-01T08:24:59;96920.69;;;7.79;100.00
50790;BME280;37287;47.554;7.844;2023-04-01T08:27:56;96925.31;;;7.78;100.00
50790;BME280;37287;47.554;7.844;2023-04-01T08:30:28;96911.47;;;7.80;100.00
50790;BME280;37287;47.554;7.844;2023-04-01T08:33:08;96909.94;;;7.86;100.00
50790;BME280;37287;47.554;7.844;2023-04-01T08:35:42;96918.81;;;7.90;100.00
50790;BME280;37287;47.554;7.844;2023-04-01T08:38:16;96913.06;;;7.95;100.00
50790;BME280;37287;47.554;7.844;2023-04-01T08:40:56;96909.59;;;7.98;100.00
50790;BME280;37287;47.554;7.844;2023-04-01T08:43:54;96911.91;;;8.03;100.00
50790;BME280;37287;47.554;7.844;2023-04-01T08:46:56;96910.38;;;8.09;100.00
50790;BME280;37287;47.554;7.844;2023-04-01T08:56:03;96913.88;;;8.21;97.91
50790;BME280;37287;47.554;7.844;2023-04-01T09:01:55;96918.88;;;8.22;98.67
50790;BME280;37287;47.554;7.844;2023-04-01T09:07:35;96916.56;;;8.28;97.24
50790;BME280;37287;47.554;7.844;2023-04-01T09:13:14;96914.25;;;8.34;96.81
50790;BME280;37287;47.554;7.844;2023-04-01T09:18:42;96920.81;;;8.43;98.36
50790;BME280;37287;47.554;7.844;2023-04-01T09:21:34;96916.63;;;8.46;97.26
50790;BME280;37287;47.554;7.844;2023-04-01T09:24:41;96915.06;;;8.52;96.94
50790;BME280;37287;47.554;7.844;2023-04-01T09:27:17;96918.94;;;8.58;95.81
50790;BME280;37287;47.554;7.844;2023-04-01T09:30:10;96917.41;;;8.57;96.13
50790;BME280;37287;47.554;7.844;2023-04-01T09:35:47;96923.94;;;8.67;94.27
50790;BME280;37287;47.554;7.844;2023-04-01T09:40:58;96929.34;;;8.74;94.73
50790;BME280;37287;47.554;7.844;2023-04-01T09:49:06;96940.50;;;8.69;97.14
50790;BME280;37287;47.554;7.844;2023-04-01T10:03:23;96950.53;;;8.62;98.20
50790;BME280;37287;47.554;7.844;2023-04-01T10:09:14;96946.66;;;8.48;100.00
50790;BME280;37287;47.554;7.844;2023-04-01T10:12:16;96944.34;;;8.47;100.00
50790;BME280;37287;47.554;7.844;2023-04-01T10:18:46;96949.00;;;8.50;100.00
50790;BME280;37287;47.554;7.844;2023-04-01T10:39:12;96940.50;;;8.87;100.00
50790;BME280;37287;47.554;7.844;2023-04-01T10:56:09;96941.28;;;9.02;97.28
50790;BME280;37287;47.554;7.844;2023-04-01T11:07:36;96954.41;;;8.86;99.51
50790;BME280;37287;47.554;7.844;2023-04-01T11:30:16;96975.13;;;8.24;100.00
50790;BME280;37287;47.554;7.844;2023-04-01T11:38:45;96971.69;;;8.38;100.00
50790;BME280;37287;47.554;7.844;2023-04-01T11:41:20;96969.00;;;8.41;100.00
50790;BME280;37287;47.554;7.844;2023-04-01T11:44:03;96964.41;;;8.46;100.00
50790;BME280;37287;47.554;7.844;2023-04-01T11:50:23;96962.09;;;8.55;100.00
50790;BME280;37287;47.554;7.844;2023-04-01T11:53:10;96954.38;;;8.60;100.00
50790;BME280;37287;47.554;7.844;2023-04-01T11:58:31;96950.94;;;8.74;100.00
50790;BME280;37287;47.554;7.844;2023-04-01T12:01:13;96949.00;;;8.89;100.00
50790;BME280;37287;47.554;7.844;2023-04-01T12:06:54;96955.53;;;9.14;100.00
50790;BME280;37287;47.554;7.844;2023-04-01T12:09:42;96950.47;;;9.30;100.00
50790;BME280;37287;47.554;7.844;2023-04-01T12:17:52;96941.84;;;9.78;98.25
50790;BME280;37287;47.554;7.844;2023-04-01T12:23:20;96935.13;;;10.05;95.75
50790;BME280;37287;47.554;7.844;2023-04-01T12:26:12;96930.06;;;10.14;95.20
50790;BME280;37287;47.554;7.844;2023-04-01T12:28:54;96932.28;;;10.33;95.47
50790;BME280;37287;47.554;7.844;2023-04-01T12:34:39;96924.44;;;10.50;90.98
50790;BME280;37287;47.554;7.844;2023-04-01T12:37:21;96930.66;;;10.43;88.84
50790;BME280;37287;47.554;7.844;2023-04-01T12:45:31;96918.34;;;10.42;90.57
50790;BME280;37287;47.554;7.844;2023-04-01T12:48:15;96920.25;;;10.42;89.87
50790;BME280;37287;47.554;7.844;2023-04-01T12:59:03;96924.50;;;10.46;91.21
50790;BME280;37287;47.554;7.844;2023-04-01T13:10:13;96922.88;;;10.53;84.21
50790;BME280;37287;47.554;7.844;2023-04-01T13:21:23;96928.03;;;10.29;86.44
50790;BME280;37287;47.554;7.844;2023-04-01T13:29:41;96956.50;;;9.81;98.58
50790;BME280;37287;47.554;7.844;2023-04-01T13:32:33;96955.06;;;9.55;100.00
50790;BME280;37287;47.554;7.844;2023-04-01T13:41:11;96942.41;;;9.19;100.00
50790;BME280;37287;47.554;7.844;2023-04-01T13:43:47;96945.88;;;9.23;100.00
50790;BME280;37287;47.554;7.844;2023-04-01T13:57:52;96962.44;;;9.33;100.00
50790;BME280;37287;47.554;7.844;2023-04-01T14:00:57;96968.25;;;9.24;100.00
50790;BME280;37287;47.554;7.844;2023-04-01T14:07:09;96969.78;;;9.21;100.00
50790;BME280;37287;47.554;7.844;2023-04-01T14:15:15;96942.00;;;9.24;99.72
50790;BME280;37287;47.554;7.844;2023-04-01T14:17:58;96944.69;;;9.35;100.00
50790;BME280;37287;47.554;7.844;2023-04-01T14:23:30;96943.50;;;9.43;97.14
50790;BME280;37287;47.554;7.844;2023-04-01T14:26:20;96944.28;;;9.48;96.34
50790;BME280;37287;47.554;7.844;2023-04-01T14:34:55;96952.22;;;9.87;93.77
50790;BME280;37287;47.554;7.844;2023-04-01T14:44:27;96938.47;;;10.30;90.84
50790;BME280;37287;47.554;7.844;2023-04-01T14:49:27;96941.09;;;10.48;87.60
50790;BME280;37287;47.554;7.844;2023-04-01T14:52:26;96933.78;;;10.45;85.84
50790;BME280;37287;47.554;7.844;2023-04-01T14:54:53;96936.06;;;10.51;87.13
50790;BME280;37287;47.554;7.844;2023-04-01T14:57:30;96932.84;;;10.66;89.77
50790;BME280;37287;47.554;7.844;2023-04-01T15:00:13;96950.13;;;10.80;88.28
50790;BME280;37287;47.554;7.844;2023-04-01T15:16:06;96937.03;;;10.75;83.60
50790;BME280;37287;47.554;7.844;2023-04-01T15:24:14;96931.75;;;11.02;83.60
50790;BME280;37287;47.554;7.844;2023-04-01T15:27:11;96940.25;;;11.04;83.55
50790;BME280;37287;47.554;7.844;2023-04-01T15:30:00;96931.75;;;11.06;82.31
50790;BME280;37287;47.554;7.844;2023-04-01T15:32:39;96932.91;;;11.01;82.28
50790;BME280;37287;47.554;7.844;2023-04-01T15:35:25;96940.38;;;10.90;82.63
50790;BME280;37287;47.554;7.844;2023-04-01T15:38:05;96936.16;;;10.89;81.51
50790;BME280;37287;47.554;7.844;2023-04-01T15:43:14;96939.34;;;10.76;82.76
50790;BME280;37287;47.554;7.844;2023-04-01T15:45:48;96942.06;;;10.73;82.00
50790;BME280;37287;47.554;7.844;2023-04-01T15:48:21;96934.78;;;10.66;83.00
50790;BME280;37287;47.554;7.844;2023-04-01T16:07:55;96931.50;;;10.33;87.91
50790;BME280;37287;47.554;7.844;2023-04-01T16:10:51;96935.53;;;10.07;95.88
50790;BME280;37287;47.554;7.844;2023-04-01T16:13:35;96942.97;;;9.88;95.95
50790;BME280;37287;47.554;7.844;2023-04-01T16:16:13;96937.97;;;9.83;95.91
50790;BME280;37287;47.554;7.844;2023-04-01T16:27:04;96928.69;;;9.80;99.82
50790;BME280;37287;47.554;7.844;2023-04-01T16:29:40;96917.84;;;9.88;100.00
50790;BME280;37287;47.554;7.844;2023-04-01T16:35:42;96922.41;;;10.02;96.90
50790;BME280;37287;47.554;7.844;2023-04-01T16:43:48;96940.22;;;9.95;92.77
50790;BME280;37287;47.554;7.844;2023-04-01T16:49:25;96955.69;;;9.88;90.16
50790;BME280;37287;47.554;7.844;2023-04-01T16:54:31;96953.41;;;9.83;91.23
50790;BME280;37287;47.554;7.844;2023-04-01T16:57:17;96966.59;;;9.66;89.80
50790;BME280;37287;47.554;7.844;2023-04-01T17:02:16;96966.66;;;9.41;89.02
50790;BME280;37287;47.554;7.844;2023-04-01T17:04:47;96962.84;;;9.35;89.71
50790;BME280;37287;47.554;7.844;2023-04-01T17:15:43;96964.38;;;9.28;91.06
50790;BME280;37287;47.554;7.844;2023-04-01T17:21:06;96958.97;;;9.28;92.01
50790;BME280;37287;47.554;7.844;2023-04-01T17:23:38;96966.69;;;9.23;92.72
50790;BME280;37287;47.554;7.844;2023-04-01T17:29:30;96978.31;;;9.16;91.29
50790;BME280;37287;47.554;7.844;2023-04-01T17:32:05;96968.28;;;9.09;90.32
50790;BME280;37287;47.554;7.844;2023-04-01T17:37:45;96977.13;;;8.99;90.00
50790;BME280;37287;47.554;7.844;2023-04-01T17:40:32;96978.69;;;8.93;90.20
50790;BME280;37287;47.554;7.844;2023-04-01T17:45:53;96980.25;;;8.80;92.27
50790;BME280;37287;47.554;7.844;2023-04-01T17:48:55;96980.59;;;8.71;92.73
50790;BME280;37287;47.554;7.844;2023-04-01T17:51:54;96977.50;;;8.65;92.13
50790;BME280;37287;47.554;7.844;2023-04-01T18:08:57;96994.44;;;8.44;94.94
50790;BME280;37287;47.554;7.844;2023-04-01T18:11:34;97002.88;;;8.42;94.63
50790;BME280;37287;47.554;7.844;2023-04-01T18:14:28;97010.97;;;8.42;95.05
50790;BME280;37287;47.554;7.844;2023-04-01T18:17:12;97014.84;;;8.41;95.62
50790;BME280;37287;47.554;7.844;2023-04-01T18:22:44;97018.31;;;8.38;96.16
50790;BME280;37287;47.554;7.844;2023-04-01T18:25:21;97025.25;;;8.36;95.97
50790;BME280;37287;47.554;7.844;2023-04-01T18:28:06;97022.94;;;8.34;96.56
50790;BME280;37287;47.554;7.844;2023-04-01T18:30:38;97031.38;;;8.29;98.27
50790;BME280;37287;47.554;7.844;2023-04-01T18:33:19;97036.00;;;8.25;99.22
50790;BME280;37287;47.554;7.844;2023-04-01T18:39:18;97052.16;;;8.18;100.00
50790;BME280;37287;47.554;7.844;2023-04-01T18:42:15;97061.75;;;8.15;100.00
50790;BME280;37287;47.554;7.844;2023-04-01T18:45:51;97069.09;;;8.15;99.87
50790;BME280;37287;47.554;7.844;2023-04-01T18:51:11;97081.78;;;8.14;100.00
50790;BME280;37287;47.554;7.844;2023-04-01T18:53:48;97082.94;;;8.13;100.00
50790;BME280;37287;47.554;7.844;2023-04-01T18:56:32;97094.50;;;8.14;100.00
50790;BME280;37287;47.554;7.844;2023-04-01T18:59:06;97097.56;;;8.12;100.00
50790;BME280;37287;47.554;7.844;2023-04-01T19:01:45;97100.22;;;8.08;100.00
50790;BME280;37287;47.554;7.844;2023-04-01T19:15:37;97096.72;;;7.97;100.00
50790;BME280;37287;47.554;7.844;2023-04-01T19:24:34;97097.84;;;7.92;100.00
50790;BME280;37287;47.554;7.844;2023-04-01T19:32:30;97077.38;;;7.81;100.00
50790;BME280;37287;47.554;7.844;2023-04-01T19:43:59;97090.66;;;7.52;100.00
50790;BME280;37287;47.554;7.844;2023-04-01T19:46:36;97079.47;;;7.46;100.00
50790;BME280;37287;47.554;7.844;2023-04-01T19:49:27;97080.59;;;7.42;100.00
50790;BME280;37287;47.554;7.844;2023-04-01T19:55:07;97087.44;;;7.32;100.00
50790;BME280;37287;47.554;7.844;2023-04-01T20:00:39;97093.16;;;7.23;100.00
50790;BME280;37287;47.554;7.844;2023-04-01T20:03:21;97088.91;;;7.22;100.00
50790;BME280;37287;47.554;7.844;2023-04-01T20:11:44;97101.50;;;7.11;100.00
50790;BME280;37287;47.554;7.844;2023-04-01T20:20:02;97121.41;;;7.02;100.00
50790;BME280;37287;47.554;7.844;2023-04-01T20:25:19;97124.78;;;6.92;100.00
50790;BME280;37287;47.554;7.844;2023-04-01T20:27:51;97137.09;;;6.93;100.00
50790;BME280;37287;47.554;7.844;2023-04-01T20:30:38;97133.19;;;6.87;100.00
50790;BME280;37287;47.554;7.844;2023-04-01T20:34:01;97132.03;;;6.88;100.00
50790;BME280;37287;47.554;7.844;2023-04-01T20:39:37;97134.25;;;6.79;100.00
50790;BME280;37287;47.554;7.844;2023-04-01T20:53:07;97141.09;;;6.72;100.00
50790;BME280;37287;47.554;7.844;2023-04-01T21:05:12;97164.78;;;6.60;100.00
50790;BME280;37287;47.554;7.844;2023-04-01T21:08:16;97159.38;;;6.56;100.00
50790;BME280;37287;47.554;7.844;2023-04-01T21:11:22;97161.63;;;6.54;100.00
50790;BME280;37287;47.554;7.844;2023-04-01T21:25:03;97166.47;;;6.41;100.00
50790;BME280;37287;47.554;7.844;2023-04-01T21:42:04;97196.25;;;6.25;100.00
50790;BME280;37287;47.554;7.844;2023-04-01T21:44:39;97202.34;;;6.22;100.00
50790;BME280;37287;47.554;7.844;2023-04-01T21:47:16;97206.88;;;6.18;100.00
50790;BME280;37287;47.554;7.844;2023-04-01T21:55:50;97198.28;;;6.05;100.00
50790;BME280;37287;47.554;7.844;2023-04-01T22:04:34;97205.06;;;5.99;100.00